Time;durP1;ratioP1;P1;durP2;ratioP2;P2;SDS_P1;SDS_P2;PMS_P1;PMS_P2;Temp;Humidity;BMP_temperature;BMP_pressure;BME280_temperature;BME280_humidity;BME280_pressure;Samples;Min_cycle;Max_cycle;Signal;HPM_P1;HPM_P2
2022/05/14 00:01:38;;;;;;;6.50;2.87;;;;;;;10.62;100.00;98963.87;4370091;32;20402;-75
2022/05/14 00:04:07;;;;;;;4.62;2.85;;;;;;;10.61;100.00;98973.00;4370712;32;20070;-76
2022/05/14 00:06:33;;;;;;;6.32;2.50;;;;;;;10.54;100.00;98974.00;4370984;32;20036;-75
2022/05/14 00:09:04;;;;;;;6.97;3.15;;;;;;;10.51;100.00;98974.53;4365894;32;20043;-75
2022/05/14 00:14:18;;;;;;;3.28;2.70;;;;;;;10.24;100.00;98941.31;4355963;32;20043;-75
2022/05/14 00:16:46;;;;;;;7.10;3.30;;;;;;;10.46;100.00;98977.16;4355911;32;20074;-75
2022/05/14 00:19:12;;;;;;;10.88;2.78;;;;;;;10.45;100.00;98975.53;4357518;32;20070;-76
2022/05/14 00:21:39;;;;;;;8.32;3.92;;;;;;;10.40;100.00;98972.75;4369287;32;20312;-75
2022/05/14 00:24:07;;;;;;;9.75;3.67;;;;;;;10.45;100.00;98980.91;4370639;32;20085;-79
2022/05/14 00:26:35;;;;;;;10.70;3.17;;;;;;;10.46;100.00;98982.53;4370594;32;20200;-74
2022/05/14 00:29:02;;;;;;;8.57;2.90;;;;;;;10.10;100.00;98941.69;4368850;32;20039;-79
2022/05/14 00:31:30;;;;;;;6.03;2.33;;;;;;;10.30;100.00;98986.06;4370812;32;20305;-75
2022/05/14 00:33:57;;;;;;;4.25;2.75;;;;;;;10.23;100.00;98982.72;4370013;32;20035;-76
2022/05/14 00:36:30;;;;;;;10.30;3.42;;;;;;;10.20;100.00;98996.69;4370194;32;20040;-76
2022/05/14 00:38:57;;;;;;;5.90;2.80;;;;;;;10.24;100.00;98995.13;4368477;32;20043;-77
2022/05/14 00:41:24;;;;;;;4.50;2.72;;;;;;;9.94;100.00;98948.72;4370196;32;20182;-78
2022/05/14 00:43:56;;;;;;;3.58;2.58;;;;;;;10.21;100.00;98995.63;4368473;32;20094;-77
2022/05/14 00:46:40;;;;;;;3.92;2.87;;;;;;;10.23;100.00;98998.88;4367999;32;20048;-76
2022/05/14 00:49:07;;;;;;;6.25;2.75;;;;;;;10.08;100.00;98965.31;4353741;32;20352;-78
2022/05/14 00:51:35;;;;;;;10.00;3.30;;;;;;;9.94;100.00;98974.78;4355634;32;20051;-77
2022/05/14 00:54:07;;;;;;;9.68;3.70;;;;;;;10.03;100.00;98957.19;4355810;32;20093;-77
2022/05/14 00:56:52;;;;;;;12.82;3.20;;;;;;;10.26;100.00;98998.38;4352724;32;20432;-79
2022/05/14 00:59:21;;;;;;;14.27;3.05;;;;;;;10.23;100.00;98996.19;4355199;32;20353;-76
2022/05/14 01:01:49;;;;;;;7.30;3.08;;;;;;;10.30;100.00;98996.84;4355527;32;20061;-77
2022/05/14 01:04:17;;;;;;;8.38;2.87;;;;;;;10.29;100.00;98987.13;4352007;32;20082;-78
2022/05/14 01:06:55;;;;;;;6.28;2.83;;;;;;;10.35;100.00;98997.75;4355500;32;20715;-77
2022/05/14 01:09:22;;;;;;;10.55;2.42;;;;;;;10.45;100.00;98997.06;4360353;32;20043;-77
2022/05/14 01:11:50;;;;;;;7.05;2.92;;;;;;;10.32;100.00;98992.00;4369842;32;20039;-77
2022/05/14 01:14:17;;;;;;;5.18;2.78;;;;;;;10.21;100.00;98948.03;4368740;32;20066;-77
2022/05/14 01:16:44;;;;;;;6.82;2.53;;;;;;;10.47;100.00;98984.16;4369815;32;20035;-77
2022/05/14 01:19:13;;;;;;;7.70;2.20;;;;;;;10.08;100.00;98938.41;4370062;32;20039;-77
2022/05/14 01:22:24;;;;;;;6.25;2.53;;;;;;;10.06;100.00;98943.22;4356725;32;20030;-77
2022/05/14 01:27:51;;;;;;;3.37;2.30;;;;;;;10.44;100.00;98981.97;4355221;33;20083;-76
2022/05/14 01:30:19;;;;;;;4.28;2.83;;;;;;;10.31;100.00;98952.72;4348999;33;20062;-77
2022/05/14 01:32:46;;;;;;;9.98;2.80;;;;;;;10.25;100.00;98959.09;4355021;33;20036;-79
2022/05/14 01:35:16;;;;;;;4.62;2.87;;;;;;;10.43;100.00;98966.88;4363735;32;20300;-76
2022/05/14 01:37:44;;;;;;;4.27;2.40;;;;;;;10.53;100.00;98971.59;4368403;32;20052;-77
2022/05/14 01:40:11;;;;;;;11.48;3.20;;;;;;;10.43;100.00;98964.19;4370746;32;20200;-77
2022/05/14 01:42:37;;;;;;;8.88;3.25;;;;;;;10.43;100.00;98991.09;4372283;32;20106;-79
2022/05/14 01:45:05;;;;;;;6.00;2.87;;;;;;;10.44;100.00;98983.88;4372272;32;20437;-77
2022/05/14 01:47:34;;;;;;;3.35;2.80;;;;;;;10.10;100.00;98944.38;4372917;32;20380;-77
2022/05/14 01:50:00;;;;;;;8.73;3.55;;;;;;;10.29;100.00;98976.34;4372854;32;20065;-77
2022/05/14 01:52:27;;;;;;;8.68;3.35;;;;;;;10.25;100.00;98969.84;4372895;32;20048;-77
2022/05/14 01:54:53;;;;;;;4.10;3.37;;;;;;;9.94;100.00;98931.75;4371030;32;20080;-77
2022/05/14 01:57:20;;;;;;;11.12;3.12;;;;;;;9.79;100.00;98935.84;4371579;32;20322;-77
2022/05/14 01:59:46;;;;;;;12.60;3.40;;;;;;;9.89;100.00;98961.28;4372703;32;20069;-77
2022/05/14 02:02:13;;;;;;;8.02;3.55;;;;;;;9.93;100.00;98978.56;4372542;32;20070;-77
2022/05/14 02:04:39;;;;;;;5.15;2.97;;;;;;;9.38;100.00;98905.69;4372496;32;20074;-77
2022/05/14 02:07:06;;;;;;;5.75;3.62;;;;;;;9.54;100.00;98955.13;4370006;32;20051;-79
2022/05/14 02:09:33;;;;;;;9.35;3.58;;;;;;;9.41;100.00;98921.34;4372937;32;20051;-77
2022/05/14 02:12:01;;;;;;;5.35;3.72;;;;;;;9.32;100.00;98911.22;4358936;32;20058;-77
2022/05/14 02:14:28;;;;;;;8.80;3.65;;;;;;;9.69;100.00;98973.34;4372808;32;20058;-77
2022/05/14 02:16:56;;;;;;;13.82;3.85;;;;;;;9.42;100.00;98930.19;4357308;32;20043;-77
2022/05/14 02:19:22;;;;;;;8.30;3.35;;;;;;;9.61;100.00;98971.91;4372394;32;20174;-77
2022/05/14 02:21:49;;;;;;;14.85;4.18;;;;;;;9.58;100.00;98967.00;4358960;32;20031;-76
2022/05/14 02:24:15;;;;;;;10.95;4.15;;;;;;;9.38;100.00;98972.03;4372154;32;20065;-77
2022/05/14 02:26:42;;;;;;;13.75;4.00;;;;;;;9.47;100.00;98975.16;4370702;32;20035;-78
2022/05/14 02:29:09;;;;;;;8.98;4.20;;;;;;;9.51;100.00;98981.66;4372246;32;20389;-77
2022/05/14 02:31:36;;;;;;;7.85;3.97;;;;;;;9.55;100.00;98969.38;4359735;32;20069;-77
2022/05/14 02:34:02;;;;;;;6.12;4.03;;;;;;;9.30;100.00;98932.13;4371882;32;20039;-77
2022/05/14 02:36:29;;;;;;;9.73;3.78;;;;;;;9.64;100.00;98965.22;4372122;32;20401;-76
2022/05/14 02:38:56;;;;;;;8.40;4.30;;;;;;;9.42;100.00;98933.69;4355144;32;20040;-77
2022/05/14 02:41:22;;;;;;;7.15;3.45;;;;;;;9.52;100.00;98954.53;4372020;32;20351;-76
2022/05/14 02:43:49;;;;;;;8.48;4.32;;;;;;;9.59;100.00;98957.09;4372310;32;20047;-76
2022/05/14 02:46:16;;;;;;;10.75;4.22;;;;;;;9.50;100.00;98959.34;4370712;32;20075;-76
2022/05/14 02:48:42;;;;;;;14.35;3.83;;;;;;;9.47;100.00;98926.78;4369950;32;20040;-78
2022/05/14 02:51:09;;;;;;;7.28;4.20;;;;;;;9.41;100.00;98924.03;4370676;32;20073;-76
2022/05/14 02:53:36;;;;;;;8.48;4.05;;;;;;;9.70;100.00;98969.63;4372096;32;20044;-76
2022/05/14 02:56:03;;;;;;;7.45;4.30;;;;;;;9.45;100.00;98919.78;4371084;32;20031;-76
2022/05/14 03:01:15;;;;;;;13.73;4.20;;;;;;;9.88;100.00;98975.81;4371881;32;20479;-76
2022/05/14 03:03:42;;;;;;;9.40;4.90;;;;;;;9.89;100.00;98966.66;4372328;32;20095;-76
2022/05/14 03:06:09;;;;;;;7.15;4.18;;;;;;;10.06;100.00;98972.81;4371724;32;20092;-77
2022/05/14 03:08:36;;;;;;;7.35;4.22;;;;;;;9.99;100.00;98956.06;4370213;32;20065;-76
2022/05/14 03:11:03;;;;;;;11.23;4.55;;;;;;;9.99;100.00;98956.06;4371553;32;20886;-75
2022/05/14 03:13:30;;;;;;;9.48;4.07;;;;;;;10.09;100.00;98966.16;4372101;32;20077;-75
2022/05/14 03:15:57;;;;;;;7.53;4.37;;;;;;;10.17;100.00;98969.22;4356459;32;20136;-75
2022/05/14 03:18:24;;;;;;;9.25;4.10;;;;;;;9.91;100.00;98959.19;4370353;32;20048;-78
2022/05/14 03:20:50;;;;;;;7.97;4.50;;;;;;;9.74;100.00;98938.47;4369673;32;20056;-75
2022/05/14 03:23:17;;;;;;;5.47;4.03;;;;;;;9.63;100.00;98936.69;4371848;32;20051;-75
2022/05/14 03:25:44;;;;;;;11.30;4.68;;;;;;;9.77;100.00;98924.53;4355087;32;20072;-76
2022/05/14 03:28:10;;;;;;;14.27;5.57;;;;;;;9.63;100.00;98923.25;4356328;32;20040;-76
2022/05/14 03:30:37;;;;;;;11.27;4.97;;;;;;;9.82;100.00;98956.06;4356252;32;20062;-76
2022/05/14 03:33:03;;;;;;;9.23;4.78;;;;;;;9.67;100.00;98959.34;4355498;32;20389;-75
2022/05/14 03:35:29;;;;;;;7.95;3.95;;;;;;;9.84;100.00;98969.28;4369529;32;20080;-75
2022/05/14 03:37:56;;;;;;;13.02;4.35;;;;;;;9.53;100.00;98917.75;4355506;32;20036;-75
2022/05/14 03:40:22;;;;;;;10.88;3.80;;;;;;;9.95;100.00;98971.06;4356489;32;20092;-76
2022/05/14 03:42:48;;;;;;;6.25;3.83;;;;;;;10.00;100.00;98968.44;4354356;32;20347;-76
2022/05/14 03:45:15;;;;;;;5.30;3.42;;;;;;;9.57;100.00;98900.03;4356638;32;20092;-76
2022/05/14 03:47:42;;;;;;;10.30;4.35;;;;;;;9.97;100.00;98968.91;4370205;32;20073;-77
2022/05/14 03:50:08;;;;;;;5.87;3.95;;;;;;;10.17;100.00;98966.53;4370348;32;20069;-76
2022/05/14 03:52:35;;;;;;;8.68;3.95;;;;;;;9.89;100.00;98929.00;4371288;32;20075;-76
2022/05/14 03:55:01;;;;;;;9.93;4.43;;;;;;;9.87;100.00;98949.97;4373209;32;20388;-77
2022/05/14 03:57:28;;;;;;;9.98;4.00;;;;;;;10.23;100.00;98978.19;4370896;32;20051;-76
2022/05/14 03:59:54;;;;;;;7.75;3.58;;;;;;;9.92;100.00;98940.06;4370920;32;20355;-76
2022/05/14 04:02:21;;;;;;;13.85;4.35;;;;;;;9.96;100.00;98968.12;4370865;32;20449;-76
2022/05/14 04:04:48;;;;;;;20.48;5.55;;;;;;;10.04;100.00;98972.25;4367081;32;20051;-79
2022/05/14 04:07:14;;;;;;;5.93;3.65;;;;;;;10.31;100.00;98974.25;4371080;32;20073;-76
2022/05/14 04:09:41;;;;;;;6.93;3.62;;;;;;;10.26;100.00;98972.31;4361695;32;20047;-75
2022/05/14 04:12:08;;;;;;;12.55;4.43;;;;;;;10.30;100.00;98961.84;4354919;32;20044;-76
2022/05/14 04:14:34;;;;;;;7.93;4.18;;;;;;;9.93;100.00;98939.03;4355596;32;20128;-75
2022/05/14 04:17:01;;;;;;;6.80;3.85;;;;;;;10.29;100.00;98971.81;4365340;32;20069;-75
2022/05/14 04:19:28;;;;;;;14.68;4.95;;;;;;;9.87;100.00;98928.44;4370371;32;20298;-75
2022/05/14 04:21:54;;;;;;;12.57;4.78;;;;;;;9.98;100.00;98938.28;4370467;32;20449;-76
2022/05/14 04:24:21;;;;;;;7.95;5.18;;;;;;;9.87;100.00;98920.38;4370526;32;20043;-76
2022/05/14 04:26:48;;;;;;;11.90;4.35;;;;;;;10.24;100.00;98974.41;4362365;32;20035;-78
2022/05/14 04:29:14;;;;;;;15.80;3.80;;;;;;;10.25;100.00;98986.00;4369072;32;20047;-75
2022/05/14 04:31:40;;;;;;;4.57;3.53;;;;;;;10.26;100.00;98966.91;4370973;32;20065;-76
2022/05/14 04:34:13;;;;;;;7.43;4.18;;;;;;;10.30;100.00;98975.31;4369564;32;20076;-75
2022/05/14 04:36:41;;;;;;;8.27;3.80;;;;;;;10.11;100.00;98967.50;4368838;32;20054;-80
2022/05/14 04:39:09;;;;;;;7.85;3.97;;;;;;;10.36;100.00;98974.34;4370499;32;20051;-76
2022/05/14 04:41:35;;;;;;;4.57;3.33;;;;;;;10.42;100.00;98976.03;4370255;32;20081;-76
2022/05/14 04:44:02;;;;;;;6.72;3.67;;;;;;;10.38;100.00;98980.28;4357085;32;20104;-75
2022/05/14 04:46:29;;;;;;;9.05;3.60;;;;;;;10.39;100.00;98960.38;4361631;32;20393;-76
2022/05/14 04:48:58;;;;;;;9.50;4.65;;;;;;;10.22;100.00;98930.78;4362091;32;20090;-78
2022/05/14 04:51:24;;;;;;;12.13;4.28;;;;;;;10.21;100.00;98931.88;4357056;32;20073;-77
2022/05/14 04:53:51;;;;;;;16.25;4.15;;;;;;;10.57;100.00;98970.03;4370946;32;20039;-76
2022/05/14 04:56:18;;;;;;;9.48;3.83;;;;;;;10.29;100.00;98933.28;4370123;32;20039;-76
2022/05/14 04:58:45;;;;;;;9.68;4.05;;;;;;;10.40;100.00;98932.38;4362128;32;20036;-76
2022/05/14 05:01:11;;;;;;;8.93;3.85;;;;;;;10.68;100.00;98973.66;4345367;32;20032;-75
2022/05/14 05:03:37;;;;;;;8.15;3.45;;;;;;;10.35;100.00;98933.16;4356003;32;20027;-75
2022/05/14 05:06:04;;;;;;;9.55;3.58;;;;;;;10.77;100.00;98982.91;4355403;32;20036;-75
2022/05/14 05:08:33;;;;;;;4.47;3.62;;;;;;;10.34;100.00;98939.59;4361779;32;20077;-76
2022/05/14 05:11:00;;;;;;;8.75;3.53;;;;;;;10.73;100.00;98976.41;4367863;32;20043;-76
2022/05/14 05:13:28;;;;;;;15.02;3.75;;;;;;;10.67;100.00;98977.41;4371577;32;20284;-75
2022/05/14 05:15:55;;;;;;;14.38;3.25;;;;;;;10.69;100.00;98949.16;4376404;32;20040;-75
2022/05/14 05:18:28;;;;;;;7.18;3.00;;;;;;;10.94;100.00;98976.62;4376130;32;20065;-75
2022/05/14 05:20:55;;;;;;;13.30;3.70;;;;;;;10.72;100.00;98947.81;4373076;32;20388;-78
2022/05/14 05:23:24;;;;;;;9.60;3.28;;;;;;;11.22;100.00;98979.06;4375605;32;20108;-75
2022/05/14 05:25:50;;;;;;;6.93;3.03;;;;;;;11.33;100.00;98979.16;4374672;32;20056;-75
2022/05/14 05:28:18;;;;;;;7.20;4.20;;;;;;;10.90;100.00;98938.62;4375613;32;20109;-75
2022/05/14 05:30:44;;;;;;;5.28;3.15;;;;;;;11.13;100.00;98953.62;4375363;32;20067;-76
2022/05/14 05:33:12;;;;;;;8.45;3.45;;;;;;;11.26;100.00;98947.84;4373673;32;20479;-76
2022/05/14 05:35:39;;;;;;;9.25;3.15;;;;;;;11.46;100.00;98994.91;4364009;32;20048;-75
2022/05/14 05:38:05;;;;;;;6.78;2.42;;;;;;;11.37;100.00;98985.66;4360444;32;20158;-75
2022/05/14 05:40:33;;;;;;;4.10;3.40;;;;;;;11.08;100.00;98972.47;4359202;32;20040;-77
2022/05/14 05:43:00;;;;;;;9.30;2.95;;;;;;;11.11;100.00;98945.00;4371142;32;20084;-79
2022/05/14 05:45:26;;;;;;;9.32;3.20;;;;;;;11.36;100.00;98974.09;4374753;32;20446;-76
2022/05/14 05:47:53;;;;;;;5.80;2.95;;;;;;;11.23;100.00;98932.19;4374133;32;20108;-77
2022/05/14 05:50:19;;;;;;;6.12;2.53;;;;;;;11.64;100.00;98972.94;4357365;32;20035;-74
2022/05/14 05:52:46;;;;;;;5.72;3.25;;;;;;;11.45;100.00;98923.19;4359193;32;20039;-76
2022/05/14 05:57:57;;;;;;;11.23;4.10;;;;;;;11.48;100.00;98933.47;4359725;32;20039;-77
2022/05/14 06:00:26;;;;;;;9.73;3.28;;;;;;;11.74;100.00;98968.69;4359885;32;20215;-76
2022/05/14 06:02:54;;;;;;;8.68;3.35;;;;;;;11.85;100.00;98926.44;4359584;32;20475;-79
2022/05/14 06:05:21;;;;;;;10.38;3.95;;;;;;;11.94;100.00;98968.88;4358883;32;20052;-75
2022/05/14 06:07:48;;;;;;;5.75;2.45;;;;;;;12.06;100.00;98959.78;4360397;32;20065;-75
2022/05/14 06:10:18;;;;;;;8.85;3.35;;;;;;;12.07;100.00;98950.59;4360314;32;20051;-75
2022/05/14 06:12:46;;;;;;;9.98;3.15;;;;;;;12.16;100.00;98928.25;4359695;32;20039;-76
2022/05/14 06:15:15;;;;;;;7.60;3.37;;;;;;;12.39;100.00;98925.38;4358651;32;20084;-78
2022/05/14 06:17:43;;;;;;;9.32;2.95;;;;;;;12.51;100.00;98928.69;4359049;32;20032;-74
2022/05/14 06:20:12;;;;;;;8.63;2.60;;;;;;;12.68;100.00;98956.28;4359803;32;20032;-76
2022/05/14 06:22:39;;;;;;;5.07;2.37;;;;;;;12.78;100.00;98952.81;4360107;32;20384;-76
2022/05/14 06:25:07;;;;;;;5.62;3.03;;;;;;;12.30;100.00;98925.91;4345164;32;20070;-76
2022/05/14 06:27:33;;;;;;;3.83;2.87;;;;;;;12.43;100.00;98918.37;4356265;32;20324;-77
2022/05/14 06:29:59;;;;;;;6.57;3.08;;;;;;;12.64;100.00;98928.19;4357462;32;20073;-76
2022/05/14 06:32:26;;;;;;;6.85;2.55;;;;;;;12.88;100.00;98941.22;4357856;32;20080;-76
2022/05/14 06:34:52;;;;;;;5.68;2.78;;;;;;;12.82;100.00;98947.69;4356067;32;20083;-77
2022/05/14 06:37:19;;;;;;;9.35;3.53;;;;;;;13.02;100.00;98939.63;4357698;32;20086;-76
2022/05/14 06:39:45;;;;;;;7.47;3.00;;;;;;;12.64;100.00;98881.47;4357774;32;20070;-76
2022/05/14 06:42:13;;;;;;;6.68;2.37;;;;;;;13.13;100.00;98939.63;4357362;32;20434;-76
2022/05/14 06:44:39;;;;;;;7.30;2.90;;;;;;;13.22;100.00;98928.00;4355789;32;20431;-77
2022/05/14 06:47:06;;;;;;;4.50;2.62;;;;;;;13.28;100.00;98926.13;4357507;32;20307;-76
2022/05/14 06:49:33;;;;;;;6.30;2.95;;;;;;;13.44;100.00;98921.56;4367103;32;20098;-76
2022/05/14 06:52:01;;;;;;;5.45;2.40;;;;;;;13.55;100.00;98908.84;4372318;32;20360;-76
2022/05/14 06:54:32;;;;;;;19.33;3.83;;;;;;;13.60;100.00;98928.56;4357554;32;20429;-77
2022/05/14 06:57:05;;;;;;;10.13;2.40;;;;;;;13.81;100.00;98913.09;4371881;32;20043;-78
2022/05/14 06:59:32;;;;;;;4.65;2.03;;;;;;;13.67;100.00;98885.00;4358030;32;20369;-76
2022/05/14 07:01:59;;;;;;;7.45;2.58;;;;;;;13.90;100.00;98918.78;4369071;32;20047;-75
2022/05/14 07:07:12;;;;;;;7.12;2.70;;;;;;;14.28;100.00;98923.81;4372255;32;20044;-78
2022/05/14 07:09:45;;;;;;;6.45;2.50;;;;;;;14.44;100.00;98928.09;4370902;32;20047;-77
2022/05/14 07:12:12;;;;;;;5.75;2.10;;;;;;;14.43;100.00;98907.50;4371139;32;20039;-76
2022/05/14 07:14:43;;;;;;;4.03;1.95;;;;;;;13.97;100.00;98883.31;4371471;32;20040;-76
2022/05/14 07:17:10;;;;;;;7.10;2.20;;;;;;;14.24;100.00;98888.34;4371646;32;20070;-76
2022/05/14 07:19:38;;;;;;;8.68;2.47;;;;;;;14.23;100.00;98869.69;4371035;32;20081;-79
2022/05/14 07:22:04;;;;;;;4.15;1.73;;;;;;;14.87;100.00;98939.28;4369901;32;20039;-77
2022/05/14 07:24:31;;;;;;;5.97;2.00;;;;;;;14.85;100.00;98930.62;4371261;32;20069;-75
2022/05/14 07:27:01;;;;;;;9.15;2.05;;;;;;;14.73;100.00;98922.03;4371603;32;20065;-76
2022/05/14 07:29:28;;;;;;;6.45;2.50;;;;;;;15.00;100.00;98956.03;4371650;32;20163;-76
2022/05/14 07:31:55;;;;;;;9.10;2.42;;;;;;;14.92;100.00;98902.38;4359054;32;20040;-76
2022/05/14 07:34:22;;;;;;;8.13;2.08;;;;;;;15.20;100.00;98964.00;4356643;32;20039;-76
2022/05/14 07:37:02;;;;;;;6.97;2.12;;;;;;;15.18;100.00;98949.94;4356046;32;20077;-76
2022/05/14 07:39:36;;;;;;;8.20;1.80;;;;;;;15.30;100.00;98940.63;4355264;32;20052;-81
2022/05/14 07:42:09;;;;;;;3.33;1.90;;;;;;;15.59;100.00;98941.47;4356725;32;20085;-76
2022/05/14 07:44:41;;;;;;;7.85;2.58;;;;;;;15.77;100.00;98950.03;4356526;32;20043;-76
2022/05/14 07:47:08;;;;;;;9.75;2.58;;;;;;;15.59;100.00;98933.34;4341393;32;20031;-81
2022/05/14 07:49:35;;;;;;;5.47;2.60;;;;;;;15.24;100.00;98886.41;4361269;32;20338;-75
2022/05/14 07:52:02;;;;;;;7.50;2.37;;;;;;;15.63;100.00;98925.44;4370798;32;20155;-75
2022/05/14 07:54:28;;;;;;;4.43;1.73;;;;;;;15.70;100.00;98927.81;4366938;32;20445;-74
2022/05/14 07:56:55;;;;;;;4.05;1.85;;;;;;;15.53;100.00;98947.22;4366727;32;20043;-76
2022/05/14 07:59:22;;;;;;;5.57;1.90;;;;;;;15.60;100.00;98943.09;4370271;32;20043;-81
2022/05/14 08:01:48;;;;;;;12.00;3.53;;;;;;;15.41;100.00;98928.59;4360295;32;20032;-78
2022/05/14 08:04:21;;;;;;;7.68;2.28;;;;;;;15.32;100.00;98922.19;4356081;32;20044;-77
2022/05/14 08:06:47;;;;;;;6.85;2.55;;;;;;;15.33;100.00;98935.44;4354891;32;20073;-75
2022/05/14 08:09:13;;;;;;;5.22;2.33;;;;;;;14.90;100.00;98910.78;4355397;32;20088;-75
2022/05/14 08:11:41;;;;;;;13.93;4.62;;;;;;;15.57;100.00;98919.25;4355126;32;20371;-79
2022/05/14 08:14:07;;;;;;;2.33;2.00;;;;;;;15.68;100.00;98935.44;4355219;32;20058;-78
2022/05/14 08:16:33;;;;;;;8.88;2.70;;;;;;;15.50;100.00;98928.81;4355378;32;20047;-77
2022/05/14 08:19:00;;;;;;;9.20;2.75;;;;;;;15.55;100.00;98937.69;4356089;32;20366;-78
2022/05/14 08:24:32;;;;;;;8.38;2.55;;;;;;;15.55;100.00;98953.97;4370066;32;20098;-76
2022/05/14 08:27:08;;;;;;;11.18;2.72;;;;;;;15.32;100.00;98939.25;4359519;32;20059;-77
2022/05/14 08:29:35;;;;;;;9.02;2.12;;;;;;;15.71;100.00;98951.94;4356159;32;20167;-76
2022/05/14 08:32:04;;;;;;;11.35;2.85;;;;;;;15.82;100.00;98933.69;4367729;32;20065;-76
2022/05/14 08:34:31;;;;;;;10.00;2.58;;;;;;;15.83;100.00;98932.59;4370067;32;20065;-76
2022/05/14 08:36:58;;;;;;;8.68;2.30;;;;;;;15.53;100.00;98923.63;4370900;32;20044;-76
2022/05/14 08:39:28;;;;;;;8.02;2.30;;;;;;;15.80;100.00;98917.69;4369170;32;20392;-76
2022/05/14 08:42:01;;;;;;;8.32;2.25;;;;;;;15.58;100.00;98925.47;4358684;32;20065;-77
2022/05/14 08:44:32;;;;;;;9.65;2.37;;;;;;;15.57;100.00;98961.84;4358384;32;20065;-77
2022/05/14 08:47:07;;;;;;;7.53;1.92;;;;;;;15.65;100.00;98925.13;4368247;32;20035;-77
2022/05/14 08:49:34;;;;;;;3.92;2.15;;;;;;;15.55;100.00;98929.56;4369778;32;20055;-76
2022/05/14 08:52:09;;;;;;;10.75;2.28;;;;;;;15.37;100.00;98925.66;4365485;32;20032;-76
2022/05/14 08:54:36;;;;;;;6.18;2.67;;;;;;;15.34;100.00;98942.50;4363736;32;20189;-79
2022/05/14 08:57:14;;;;;;;12.27;2.05;;;;;;;15.02;100.00;98877.94;4360143;32;20035;-75
2022/05/14 08:59:59;;;;;;;2.78;1.98;;;;;;;15.42;100.00;98913.94;4361445;32;20058;-75
2022/05/14 09:02:43;;;;;;;8.52;2.05;;;;;;;15.57;100.00;98870.41;4358563;32;20353;-76
2022/05/14 09:05:12;;;;;;;;;;;;;;;15.68;100.00;98927.28;4364077;32;20192;-77
2022/05/14 09:07:38;;;;;;;4.30;1.83;;;;;;;15.84;100.00;98904.34;4370375;32;19960;-75
2022/05/14 09:10:08;;;;;;;6.40;2.33;;;;;;;15.74;100.00;98918.00;4367065;32;20405;-75
2022/05/14 09:12:47;;;;;;;11.25;2.22;;;;;;;15.81;100.00;98913.06;4353933;32;20463;-76
2022/05/14 09:15:16;;;;;;;2.12;1.90;;;;;;;15.86;100.00;98928.50;4364784;32;20062;-77
2022/05/14 09:17:43;;;;;;;6.60;1.77;;;;;;;15.92;100.00;98920.03;4360433;32;20039;-78
2022/05/14 09:20:09;;;;;;;9.38;2.28;;;;;;;15.51;100.00;98909.53;4365088;32;20393;-77
2022/05/14 09:22:44;;;;;;;6.93;2.37;;;;;;;15.80;100.00;98933.19;4360702;32;20073;-76
2022/05/14 09:25:29;;;;;;;6.75;2.50;;;;;;;15.86;100.00;98963.78;4347962;32;20061;-78
2022/05/14 09:28:09;;;;;;;11.05;2.20;;;;;;;15.65;100.00;98931.38;4349596;32;20122;-78
2022/05/14 09:30:42;;;;;;;9.68;2.85;;;;;;;15.90;100.00;98943.94;4362258;32;20063;-78
2022/05/14 09:33:27;;;;;;;7.57;2.15;;;;;;;15.46;100.00;98876.19;4361867;32;20467;-76
2022/05/14 09:35:57;;;;;;;7.00;2.00;;;;;;;16.00;100.00;98931.34;4361111;32;20093;-76
2022/05/14 09:38:25;;;;;;;3.58;1.90;;;;;;;15.97;100.00;98955.28;4360790;32;20083;-76
2022/05/14 09:40:55;;;;;;;10.80;2.22;;;;;;;16.02;100.00;98934.56;4347882;32;20070;-81
2022/05/14 09:43:30;;;;;;;9.13;2.08;;;;;;;16.14;100.00;98932.28;4361762;32;20055;-77
2022/05/14 09:46:03;;;;;;;5.30;2.12;;;;;;;16.34;100.00;98948.34;4361430;32;20061;-78
2022/05/14 09:48:43;;;;;;;13.55;2.35;;;;;;;16.03;100.00;98938.91;4363974;32;20060;-85
2022/05/14 09:51:09;;;;;;;6.97;1.98;;;;;;;16.23;100.00;98979.44;4364846;32;20112;-77
2022/05/14 09:53:40;;;;;;;5.18;1.83;;;;;;;16.15;100.00;98939.34;4365530;32;20043;-77
2022/05/14 09:56:09;;;;;;;2.85;2.28;;;;;;;16.17;100.00;98937.94;4364039;32;20072;-77
2022/05/14 09:59:30;;;;;;;8.93;2.58;;;;;;;16.22;100.00;98939.78;4339946;32;20450;-77
2022/05/14 10:02:21;;;;;;;9.02;2.28;;;;;;;16.30;100.00;98974.47;4297253;33;20048;-78
2022/05/14 10:04:50;;;;;;;12.25;1.87;;;;;;;16.24;100.00;98942.22;4296065;33;20067;-77
2022/05/14 10:07:33;;;;;;;8.15;1.95;;;;;;;16.59;100.00;98932.81;4285788;33;20055;-77
2022/05/14 10:10:24;;;;;;;4.60;2.08;;;;;;;16.47;100.00;98924.28;4297147;33;20067;-75
2022/05/14 10:13:04;;;;;;;5.68;2.20;;;;;;;16.92;100.00;98930.22;4294525;33;20038;-79
2022/05/14 10:15:47;;;;;;;11.05;1.77;;;;;;;16.99;100.00;98933.41;4297363;33;20408;-78
2022/05/14 10:18:29;;;;;;;;;;;;;;;16.78;100.00;98937.47;4296598;33;20102;-77
2022/05/14 10:21:27;;;;;;;3.87;1.75;;;;;;;16.58;100.00;98957.56;4296560;33;20321;-76
2022/05/14 10:27:22;;;;;;;9.10;2.10;;;;;;;16.03;100.00;98966.06;4300365;33;20076;-75
2022/05/14 10:29:55;;;;;;;7.43;2.15;;;;;;;15.91;100.00;98934.69;4296601;33;20041;-75
2022/05/14 10:32:30;;;;;;;4.60;2.08;;;;;;;16.17;100.00;98948.00;4322314;32;20065;-77
2022/05/14 10:35:05;;;;;;;4.35;1.95;;;;;;;16.07;100.00;98950.84;4356471;32;21064;-75
2022/05/14 10:37:47;;;;;;;2.95;1.52;;;;;;;15.73;100.00;98935.38;4369911;32;20039;-76
2022/05/14 10:40:20;;;;;;;4.55;2.12;;;;;;;15.76;100.00;98964.66;4356753;32;20509;-75
2022/05/14 10:42:54;;;;;;;9.77;2.35;;;;;;;16.18;100.00;98933.34;4352513;32;20035;-76
2022/05/14 10:45:21;;;;;;;6.40;2.00;;;;;;;16.15;100.00;98950.19;4365746;32;20052;-76
2022/05/14 10:48:19;;;;;;;5.47;1.98;;;;;;;16.16;100.00;98954.50;4356764;32;20039;-76
2022/05/14 10:50:46;;;;;;;8.88;2.17;;;;;;;15.96;100.00;98910.19;4361722;32;20044;-76
2022/05/14 10:53:13;;;;;;;8.18;1.83;;;;;;;16.25;100.00;98932.97;4358892;32;20035;-77
2022/05/14 10:56:00;;;;;;;4.07;1.75;;;;;;;15.97;100.00;98960.69;4369753;32;20380;-76
2022/05/14 10:58:45;;;;;;;8.10;2.47;;;;;;;16.21;100.00;98892.00;4369160;32;20373;-76
2022/05/14 11:01:41;;;;;;;6.18;1.67;;;;;;;16.90;99.93;98937.88;4360671;32;20047;-76
2022/05/14 11:04:20;;;;;;;5.78;2.00;;;;;;;16.76;92.26;98948.63;4362462;32;20450;-76
2022/05/14 11:07:01;;;;;;;15.18;2.55;;;;;;;16.71;84.74;98946.78;4361689;32;20529;-77
2022/05/14 11:09:31;;;;;;;7.43;1.73;;;;;;;17.19;88.19;98934.19;4363388;32;20040;-76
2022/05/14 11:12:03;;;;;;;9.65;2.00;;;;;;;17.54;80.41;98891.19;4360948;32;20035;-76
2022/05/14 11:14:51;;;;;;;7.12;1.60;;;;;;;17.76;74.68;98948.50;4363598;32;20060;-76
2022/05/14 11:17:21;;;;;;;5.90;1.33;;;;;;;17.58;68.36;98894.91;4370844;32;20035;-76
2022/05/14 11:19:49;;;;;;;5.32;1.65;;;;;;;17.68;73.67;98919.25;4350840;32;20473;-77
2022/05/14 11:22:30;;;;;;;7.55;2.03;;;;;;;17.72;64.12;98933.84;4365214;32;20073;-77
2022/05/14 11:25:17;;;;;;;5.87;1.80;;;;;;;18.24;66.21;98931.03;4351474;32;20338;-76
2022/05/14 11:27:53;;;;;;;3.87;1.90;;;;;;;18.36;66.44;98916.88;4362934;32;20090;-76
2022/05/14 11:30:42;;;;;;;2.67;1.48;;;;;;;17.89;68.91;98908.00;4363874;32;20044;-76
2022/05/14 11:33:23;;;;;;;7.50;1.95;;;;;;;17.47;72.55;98923.41;4360402;32;20034;-75
2022/05/14 11:35:52;;;;;;;3.45;1.48;;;;;;;17.60;77.24;98911.75;4362845;32;20191;-75
2022/05/14 11:38:24;;;;;;;7.43;1.85;;;;;;;17.19;82.21;98912.44;4366433;32;20418;-76
2022/05/14 11:41:14;;;;;;;8.38;1.58;;;;;;;17.03;80.35;98928.19;4366532;32;20440;-77
2022/05/14 11:43:43;;;;;;;10.20;1.92;;;;;;;16.90;80.40;98888.94;4363581;32;20031;-76
2022/05/14 11:46:35;;;;;;;11.40;1.70;;;;;;;17.24;82.11;98931.38;4353718;32;20107;-76
2022/05/14 11:49:31;;;;;;;6.22;1.87;;;;;;;17.17;83.33;98937.22;4350267;32;20381;-75
2022/05/14 11:52:12;;;;;;;4.15;1.52;;;;;;;16.97;84.38;98922.00;4366554;32;20051;-76
2022/05/14 11:54:56;;;;;;;6.33;2.27;;;;;;;17.08;83.80;98921.84;4369872;32;20031;-76
2022/05/14 11:57:27;;;;;;;4.78;1.37;;;;;;;17.24;81.38;98932.19;4352270;32;20238;-76
2022/05/14 12:00:10;;;;;;;5.35;1.58;;;;;;;17.22;77.04;98974.41;4351988;32;20043;-76
2022/05/14 12:02:43;;;;;;;8.00;3.33;;;;;;;16.92;80.98;98965.59;4353063;32;20403;-76